Time;durP1;ratioP1;P1;durP2;ratioP2;P2;SDS_P1;SDS_P2;PMS_P1;PMS_P2;Temp;Humidity;BMP_temperature;BMP_pressure;BME280_temperature;BME280_humidity;BME280_pressure;Samples;Min_cycle;Max_cycle;Signal;HPM_P1;HPM_P2
2022/02/16 00:00:39;;;;;;;1.67;0.80;;;8.80;99.90;;;;;;5012558;28;20437;-79
2022/02/16 00:03:05;;;;;;;2.07;0.90;;;8.70;99.90;;;;;;5012692;28;20029;-79
2022/02/16 00:05:31;;;;;;;3.07;1.10;;;8.70;99.90;;;;;;5030195;28;20462;-79
2022/02/16 00:07:57;;;;;;;2.57;1.00;;;8.70;99.90;;;;;;5030249;28;20124;-79
2022/02/16 00:10:23;;;;;;;2.63;0.80;;;8.80;99.90;;;;;;5030396;28;20033;-79
2022/02/16 00:12:48;;;;;;;2.87;0.90;;;8.80;99.90;;;;;;5030406;28;20030;-79
2022/02/16 00:15:14;;;;;;;2.20;0.90;;;8.80;99.90;;;;;;5029954;28;20071;-79
2022/02/16 00:17:42;;;;;;;2.30;0.90;;;8.80;99.90;;;;;;4996176;28;20108;-79
2022/02/16 00:20:09;;;;;;;4.73;0.90;;;8.80;99.90;;;;;;5030098;28;20025;-79
2022/02/16 00:22:35;;;;;;;2.60;0.90;;;8.80;99.90;;;;;;5030192;28;20058;-79
2022/02/16 00:25:02;;;;;;;2.07;1.00;;;8.80;99.90;;;;;;5012589;28;20091;-79
2022/02/16 00:27:28;;;;;;;2.00;0.70;;;8.80;99.90;;;;;;5030148;28;20037;-79
2022/02/16 00:29:54;;;;;;;1.23;0.70;;;8.80;99.90;;;;;;5011964;28;20037;-79
2022/02/16 00:32:19;;;;;;;1.47;0.90;;;8.90;99.90;;;;;;5030157;28;20032;-79
2022/02/16 00:34:45;;;;;;;1.40;0.70;;;8.90;99.90;;;;;;5029820;28;20040;-79
2022/02/16 00:37:11;;;;;;;1.50;0.87;;;8.80;99.90;;;;;;4996230;28;20037;-79
2022/02/16 00:39:37;;;;;;;2.30;0.80;;;8.80;99.90;;;;;;5012349;28;20045;-79
2022/02/16 00:42:03;;;;;;;2.00;0.90;;;8.80;99.90;;;;;;5012294;28;20084;-79
2022/02/16 00:44:28;;;;;;;1.57;0.73;;;8.80;99.90;;;;;;5011636;28;20168;-79
2022/02/16 00:46:54;;;;;;;2.70;0.90;;;8.80;99.90;;;;;;5029987;28;20517;-79
2022/02/16 00:49:20;;;;;;;1.23;0.70;;;8.80;99.90;;;;;;5029798;28;20026;-80
2022/02/16 00:51:50;;;;;;;2.87;0.90;;;8.80;99.90;;;;;;5012328;28;20079;-79
2022/02/16 00:54:16;;;;;;;1.63;0.70;;;8.80;99.90;;;;;;4995775;28;20402;-79
2022/02/16 00:56:42;;;;;;;1.47;0.80;;;8.80;99.90;;;;;;5011997;28;20068;-79
2022/02/16 00:59:09;;;;;;;1.00;0.60;;;8.80;99.90;;;;;;5031132;28;20112;-79
2022/02/16 01:01:36;;;;;;;2.37;0.80;;;8.80;99.90;;;;;;5015555;28;20037;-79
2022/02/16 01:04:02;;;;;;;1.30;0.73;;;8.80;99.90;;;;;;5015255;28;20493;-79
2022/02/16 01:06:28;;;;;;;2.40;0.90;;;8.80;99.90;;;;;;5015655;28;20036;-79
2022/02/16 01:08:54;;;;;;;2.20;0.60;;;8.80;99.90;;;;;;5015559;28;20394;-79
2022/02/16 01:11:21;;;;;;;1.40;0.67;;;8.90;99.90;;;;;;5015579;28;20057;-79
2022/02/16 01:13:48;;;;;;;0.80;0.70;;;8.90;99.90;;;;;;5014885;28;20120;-79
2022/02/16 01:16:15;;;;;;;2.30;1.00;;;8.90;99.90;;;;;;5015510;28;20030;-79
2022/02/16 01:18:45;;;;;;;2.80;1.00;;;9.00;99.90;;;;;;5015166;28;20033;-79
2022/02/16 01:21:11;;;;;;;0.77;0.53;;;8.90;99.90;;;;;;4999190;28;20056;-79
2022/02/16 01:23:37;;;;;;;1.80;0.67;;;9.00;99.90;;;;;;5015093;28;20163;-79
2022/02/16 01:26:08;;;;;;;1.47;0.67;;;9.00;99.90;;;;;;4999678;28;20026;-79
2022/02/16 01:28:42;;;;;;;2.13;0.70;;;9.00;99.90;;;;;;4999605;28;20025;-79
2022/02/16 01:31:08;;;;;;;0.90;0.67;;;9.00;99.90;;;;;;5015074;28;20720;-79
2022/02/16 01:33:39;;;;;;;1.27;0.70;;;9.00;99.90;;;;;;5014882;28;20040;-79
2022/02/16 01:36:05;;;;;;;1.90;0.70;;;8.90;99.90;;;;;;5033025;28;20026;-79
2022/02/16 01:38:30;;;;;;;1.77;0.73;;;8.90;99.90;;;;;;5015015;28;20124;-79
2022/02/16 01:41:22;;;;;;;2.20;0.97;;;9.00;99.90;;;;;;5032916;28;20096;-79
2022/02/16 01:43:59;;;;;;;0.70;0.50;;;9.00;99.90;;;;;;5014447;28;20017;-79
2022/02/16 01:46:26;;;;;;;1.03;0.60;;;9.00;99.90;;;;;;5015034;28;20128;-79
2022/02/16 01:48:56;;;;;;;1.47;0.87;;;9.00;99.90;;;;;;5014872;28;20024;-79
2022/02/16 01:51:23;;;;;;;2.47;0.90;;;9.00;99.90;;;;;;5014839;28;20025;-79
2022/02/16 01:53:49;;;;;;;2.23;0.90;;;9.00;99.90;;;;;;5014302;28;20460;-79
2022/02/16 01:56:15;;;;;;;1.77;0.83;;;9.00;99.90;;;;;;5032799;28;20056;-79
2022/02/16 01:58:43;;;;;;;1.40;0.73;;;9.00;99.90;;;;;;4998059;28;20080;-79
2022/02/16 02:01:12;;;;;;;1.40;0.85;;;9.00;99.90;;;;;;5044393;23;20130;-84
2022/02/16 02:03:42;;;;;;;1.53;0.87;;;9.00;99.90;;;;;;5014087;28;20526;-83
2022/02/16 02:06:10;;;;;;;1.73;0.87;;;9.00;99.90;;;;;;5014615;28;20029;-84
2022/02/16 02:08:37;;;;;;;1.23;0.80;;;9.00;99.90;;;;;;5014272;28;20091;-84
2022/02/16 02:11:03;;;;;;;2.13;0.63;;;9.00;99.90;;;;;;5013534;28;20033;-83
2022/02/16 02:13:29;;;;;;;1.30;0.70;;;9.00;99.90;;;;;;5013797;28;20025;-84
2022/02/16 02:16:14;;;;;;;1.83;0.90;;;9.00;99.90;;;;;;5014471;28;20497;-84
2022/02/16 02:18:43;;;;;;;2.78;0.70;;;9.00;99.90;;;;;;5014205;28;20064;-84
2022/02/16 02:21:10;;;;;;;2.20;0.80;;;9.00;99.90;;;;;;5014209;28;20502;-84
2022/02/16 02:23:36;;;;;;;1.30;0.70;;;9.00;99.90;;;;;;5014184;28;20049;-84
2022/02/16 02:26:01;;;;;;;2.40;0.93;;;9.00;99.90;;;;;;5014113;28;20047;-84
2022/02/16 02:28:28;;;;;;;1.30;0.83;;;9.00;99.90;;;;;;5013553;28;20026;-84
2022/02/16 02:30:56;;;;;;;1.80;0.83;;;9.00;99.90;;;;;;5014045;28;20052;-84
2022/02/16 02:33:24;;;;;;;1.70;0.70;;;9.10;99.90;;;;;;5013594;28;20512;-84
2022/02/16 02:35:52;;;;;;;1.33;0.80;;;9.10;99.90;;;;;;5014034;28;20033;-83
2022/02/16 02:38:19;;;;;;;1.57;0.90;;;9.10;99.90;;;;;;5013619;28;20029;-83
2022/02/16 02:40:56;;;;;;;1.90;0.83;;;9.10;99.90;;;;;;5014158;28;20025;-84
2022/02/16 02:43:25;;;;;;;1.40;0.80;;;9.10;99.90;;;;;;5013317;28;20075;-83
2022/02/16 02:45:52;;;;;;;1.33;0.63;;;9.10;99.90;;;;;;5013889;28;20034;-83
2022/02/16 02:48:25;;;;;;;1.40;0.80;;;9.00;99.90;;;;;;5013875;28;20090;-84
2022/02/16 02:50:52;;;;;;;1.30;1.00;;;9.00;99.90;;;;;;4997557;28;20029;-84
2022/02/16 02:53:18;;;;;;;2.50;0.73;;;9.10;99.90;;;;;;5013412;28;20061;-84
2022/02/16 02:55:44;;;;;;;1.00;0.80;;;9.10;99.90;;;;;;5013792;28;20064;-84
2022/02/16 02:58:11;;;;;;;1.90;0.63;;;9.10;99.90;;;;;;5013167;28;20033;-84
2022/02/16 03:00:42;;;;;;;1.57;0.87;;;9.10;99.90;;;;;;5013445;28;20049;-84
2022/02/16 03:03:08;;;;;;;1.30;0.90;;;9.10;99.90;;;;;;5013469;28;20030;-84
2022/02/16 03:05:33;;;;;;;1.50;0.80;;;9.10;99.90;;;;;;5013487;28;20025;-84
2022/02/16 03:07:59;;;;;;;1.20;0.90;;;9.20;99.90;;;;;;5031149;28;20104;-84
2022/02/16 03:10:25;;;;;;;1.33;1.13;;;9.10;99.90;;;;;;5013323;28;20099;-83
2022/02/16 03:12:52;;;;;;;1.43;0.93;;;9.10;99.90;;;;;;5013174;28;20222;-83
2022/02/16 03:15:18;;;;;;;1.40;0.77;;;9.00;99.90;;;;;;5012821;28;20393;-83
2022/02/16 03:17:46;;;;;;;1.63;0.70;;;9.10;99.90;;;;;;5013180;28;20375;-84
2022/02/16 03:20:13;;;;;;;1.87;0.80;;;9.10;99.90;;;;;;5013024;28;20485;-84
2022/02/16 03:22:39;;;;;;;1.50;0.90;;;9.10;99.90;;;;;;5012935;28;20032;-84
2022/02/16 03:25:07;;;;;;;1.77;0.93;;;9.10;99.90;;;;;;4996648;28;20018;-83
2022/02/16 03:27:33;;;;;;;1.30;0.80;;;9.00;99.90;;;;;;5013090;28;20037;-84
2022/02/16 03:30:06;;;;;;;1.33;0.70;;;9.10;99.90;;;;;;5012572;28;20037;-84
2022/02/16 03:32:38;;;;;;;1.23;0.80;;;9.10;99.90;;;;;;5013049;28;20033;-83
2022/02/16 03:35:04;;;;;;;1.63;0.60;;;9.10;99.90;;;;;;5012707;28;20033;-83
2022/02/16 03:37:31;;;;;;;1.60;0.90;;;9.10;99.90;;;;;;4996730;28;20029;-83
2022/02/16 03:39:57;;;;;;;1.97;0.87;;;9.20;99.90;;;;;;5030499;28;20136;-83
2022/02/16 03:42:23;;;;;;;0.90;0.60;;;9.20;99.90;;;;;;5012891;28;20557;-84
2022/02/16 03:44:49;;;;;;;1.03;0.60;;;9.10;99.90;;;;;;5012322;28;20508;-83
2022/02/16 03:47:18;;;;;;;1.23;0.77;;;9.20;99.90;;;;;;4996809;28;20124;-83
2022/02/16 03:49:44;;;;;;;2.10;0.77;;;9.20;99.90;;;;;;5012560;28;20033;-84
2022/02/16 03:52:10;;;;;;;1.80;0.80;;;9.30;99.90;;;;;;5030579;28;20116;-83
2022/02/16 03:54:35;;;;;;;2.20;0.73;;;9.30;99.90;;;;;;5012350;28;20029;-83
2022/02/16 03:57:04;;;;;;;1.53;0.77;;;9.30;99.90;;;;;;5012440;28;20559;-83
2022/02/16 03:59:30;;;;;;;1.63;0.90;;;9.30;99.90;;;;;;5012576;28;20083;-83
2022/02/16 04:02:13;;;;;;;2.23;0.70;;;9.20;99.90;;;;;;5012651;28;20116;-84
2022/02/16 04:04:40;;;;;;;1.43;0.77;;;9.20;99.90;;;;;;5012346;28;20551;-83
2022/02/16 04:07:07;;;;;;;1.27;0.90;;;9.20;99.90;;;;;;5012565;28;20056;-83
2022/02/16 04:09:33;;;;;;;1.30;0.80;;;9.20;99.90;;;;;;5012436;28;20083;-83
2022/02/16 04:11:59;;;;;;;1.53;0.80;;;9.20;99.90;;;;;;5030184;28;20734;-84
2022/02/16 04:14:24;;;;;;;1.03;0.60;;;9.20;99.90;;;;;;5011766;28;20033;-83
2022/02/16 04:16:50;;;;;;;1.17;0.70;;;9.20;99.90;;;;;;5012374;28;20625;-83
2022/02/16 04:19:16;;;;;;;1.00;0.70;;;9.20;99.90;;;;;;5012314;28;20037;-83
2022/02/16 04:21:42;;;;;;;0.70;0.50;;;9.20;99.90;;;;;;5012323;28;20030;-83
2022/02/16 04:24:09;;;;;;;0.83;0.47;;;9.20;99.90;;;;;;5012034;28;20060;-83
2022/02/16 04:26:35;;;;;;;1.47;0.60;;;9.20;99.90;;;;;;5030100;28;20498;-83
2022/02/16 04:29:01;;;;;;;1.10;0.60;;;9.20;99.90;;;;;;5011857;28;20033;-83
2022/02/16 04:31:35;;;;;;;1.07;0.50;;;9.20;99.90;;;;;;5012223;28;20034;-83
2022/02/16 04:34:01;;;;;;;0.70;0.50;;;9.20;99.90;;;;;;5031262;28;20437;-83
2022/02/16 04:36:26;;;;;;;0.83;0.50;;;9.20;99.90;;;;;;5016137;28;20085;-84
2022/02/16 04:38:56;;;;;;;1.47;0.60;;;9.20;99.90;;;;;;5016218;28;20121;-83
2022/02/16 04:41:23;;;;;;;0.70;0.53;;;9.20;99.90;;;;;;5015997;28;20025;-83
2022/02/16 04:43:49;;;;;;;0.60;0.40;;;9.20;99.90;;;;;;5015612;28;20021;-83
2022/02/16 04:46:16;;;;;;;1.07;0.50;;;9.10;99.90;;;;;;5016211;28;20060;-84
2022/02/16 04:48:43;;;;;;;1.33;0.50;;;9.20;99.90;;;;;;5033777;28;20394;-83
2022/02/16 04:51:09;;;;;;;0.60;0.50;;;9.20;99.90;;;;;;5016080;28;20041;-84
2022/02/16 04:53:35;;;;;;;1.43;0.50;;;9.30;99.90;;;;;;5015682;28;20417;-84
2022/02/16 04:56:03;;;;;;;1.03;0.50;;;9.30;99.90;;;;;;5033906;28;20026;-83
2022/02/16 04:58:32;;;;;;;0.77;0.57;;;9.30;99.90;;;;;;5015519;28;20030;-83
2022/02/16 05:00:59;;;;;;;3.60;0.70;;;9.30;99.90;;;;;;5015820;28;20094;-83
2022/02/16 05:03:29;;;;;;;1.20;0.70;;;9.20;99.90;;;;;;5015428;28;20026;-83
2022/02/16 05:05:56;;;;;;;1.33;0.47;;;9.20;99.90;;;;;;5016052;28;20072;-83
2022/02/16 05:08:22;;;;;;;1.90;0.80;;;9.30;99.90;;;;;;5015525;28;20034;-83
2022/02/16 05:10:48;;;;;;;1.20;0.60;;;9.20;99.90;;;;;;5015562;28;20050;-83
2022/02/16 05:13:36;;;;;;;1.48;0.60;;;9.20;99.90;;;;;;5032424;28;20034;-83
2022/02/16 05:16:02;;;;;;;1.27;0.57;;;9.30;99.90;;;;;;5015436;28;20029;-83
2022/02/16 05:18:33;;;;;;;1.53;0.50;;;9.30;99.90;;;;;;5015352;28;20116;-83
2022/02/16 05:21:02;;;;;;;1.30;0.50;;;9.20;99.90;;;;;;5033256;28;20099;-83
2022/02/16 05:23:28;;;;;;;0.80;0.30;;;9.20;99.90;;;;;;5015328;28;20040;-83
2022/02/16 05:26:05;;;;;;;1.63;0.70;;;9.30;99.90;;;;;;5000138;28;20043;-87
2022/02/16 05:28:31;;;;;;;3.70;1.07;;;9.30;99.90;;;;;;5018120;23;20038;-72
2022/02/16 05:30:57;;;;;;;2.53;1.00;;;9.20;99.90;;;;;;5011823;28;20018;-74
2022/02/16 05:33:24;;;;;;;1.70;0.60;;;9.20;99.90;;;;;;5013070;28;20029;-71
2022/02/16 05:35:50;;;;;;;1.37;0.40;;;9.30;99.90;;;;;;5012145;28;20044;-71
2022/02/16 05:38:16;;;;;;;0.60;0.27;;;9.30;99.90;;;;;;5011625;28;20030;-73
2022/02/16 05:40:43;;;;;;;2.10;0.40;;;9.40;99.90;;;;;;4995468;28;20034;-74
2022/02/16 05:43:13;;;;;;;3.07;1.30;;;9.30;99.90;;;;;;4995048;28;20026;-74
2022/02/16 05:45:41;;;;;;;2.50;0.60;;;9.30;99.90;;;;;;5011831;28;20033;-74
2022/02/16 05:48:08;;;;;;;3.55;0.60;;;9.30;99.90;;;;;;5011694;28;20040;-77
2022/02/16 05:50:35;;;;;;;2.33;0.40;;;9.30;99.90;;;;;;4995619;28;20061;-73
2022/02/16 05:53:01;;;;;;;2.33;0.40;;;9.30;99.90;;;;;;5012883;28;20057;-75
2022/02/16 05:55:27;;;;;;;0.83;0.33;;;9.30;99.90;;;;;;5011406;28;20036;-73
2022/02/16 05:57:53;;;;;;;1.03;0.50;;;9.40;99.90;;;;;;5011114;28;20033;-74
2022/02/16 06:00:21;;;;;;;0.40;0.33;;;9.40;99.90;;;;;;4994997;28;20026;-71
2022/02/16 06:02:47;;;;;;;0.43;0.40;;;9.40;99.90;;;;;;5007326;28;20496;-70
2022/02/16 06:05:15;;;;;;;1.13;0.30;;;9.50;99.90;;;;;;5008741;28;20022;-70
2022/02/16 06:07:43;;;;;;;3.17;0.87;;;9.50;99.90;;;;;;5010455;28;20029;-71
2022/02/16 06:10:10;;;;;;;2.30;1.00;;;9.50;99.90;;;;;;5006872;28;20022;-71
2022/02/16 06:12:41;;;;;;;5.10;2.00;;;9.60;99.90;;;;;;5009304;28;20034;-71
2022/02/16 06:15:09;;;;;;;1.17;0.63;;;9.50;99.90;;;;;;5010073;28;20494;-71
2022/02/16 06:17:37;;;;;;;1.67;0.60;;;9.50;99.90;;;;;;5010329;28;20037;-71
2022/02/16 06:20:06;;;;;;;0.82;0.50;;;9.60;99.90;;;;;;5010397;28;20037;-71
2022/02/16 06:22:33;;;;;;;1.47;0.50;;;9.60;99.90;;;;;;5010376;28;20026;-71
2022/02/16 06:24:59;;;;;;;0.90;0.50;;;9.60;99.90;;;;;;5009894;28;20116;-71
2022/02/16 06:27:26;;;;;;;1.13;0.40;;;9.60;99.90;;;;;;5010256;28;20030;-71
2022/02/16 06:29:52;;;;;;;1.83;0.50;;;9.60;99.90;;;;;;4993675;28;20433;-71
2022/02/16 06:32:33;;;;;;;13.03;7.47;;;9.60;99.90;;;;;;5010178;28;20045;-73
2022/02/16 06:35:01;;;;;;;2.80;1.00;;;10.00;99.90;;;;;;5009659;28;20089;-71
2022/02/16 06:37:27;;;;;;;1.33;0.60;;;11.50;99.90;;;;;;5009729;28;20105;-71
2022/02/16 06:39:54;;;;;;;1.67;0.70;;;11.70;99.90;;;;;;5009341;28;20132;-70
2022/02/16 06:42:22;;;;;;;1.83;0.70;;;12.00;99.90;;;;;;5009565;28;20034;-71
2022/02/16 06:44:48;;;;;;;0.43;0.30;;;12.20;99.90;;;;;;5010138;28;20064;-71
2022/02/16 06:47:17;;;;;;;0.90;0.45;;;12.30;99.90;;;;;;5009590;28;20034;-72
2022/02/16 06:49:43;;;;;;;0.70;0.40;;;12.10;99.90;;;;;;4993130;28;20060;-72
2022/02/16 06:52:09;;;;;;;1.33;0.47;;;11.70;99.90;;;;;;5009610;28;20460;-73
2022/02/16 06:54:35;;;;;;;2.87;0.70;;;11.30;99.90;;;;;;5009230;28;20084;-72
2022/02/16 06:57:02;;;;;;;0.90;0.40;;;11.10;99.90;;;;;;5009150;28;20037;-71
2022/02/16 06:59:51;;;;;;;3.20;0.90;;;10.80;99.90;;;;;;5009076;28;20060;-72
2022/02/16 07:02:18;;;;;;;1.10;0.60;;;10.60;99.90;;;;;;5009364;28;20030;-72
2022/02/16 07:04:44;;;;;;;1.43;0.53;;;10.40;99.90;;;;;;5009269;28;20542;-72
2022/02/16 07:07:12;;;;;;;3.07;0.60;;;10.30;99.90;;;;;;5009466;28;20487;-72
2022/02/16 07:09:38;;;;;;;1.63;0.50;;;10.20;99.90;;;;;;5009100;28;20038;-71
2022/02/16 07:12:05;;;;;;;0.80;0.57;;;10.10;99.90;;;;;;5009168;28;20033;-71
2022/02/16 07:14:31;;;;;;;1.23;0.57;;;10.00;99.90;;;;;;4992241;28;20030;-71
2022/02/16 07:16:59;;;;;;;1.33;0.40;;;10.00;99.90;;;;;;4992766;28;20034;-71
2022/02/16 07:19:26;;;;;;;1.23;0.60;;;10.00;99.90;;;;;;5008999;28;20057;-72
2022/02/16 07:22:11;;;;;;;1.27;0.60;;;10.00;99.90;;;;;;5010628;28;20092;-71
2022/02/16 07:24:38;;;;;;;1.97;0.57;;;10.00;99.90;;;;;;5010065;28;20072;-72
2022/02/16 07:27:04;;;;;;;1.73;0.40;;;9.90;99.90;;;;;;5009085;28;20124;-72
2022/02/16 07:29:31;;;;;;;0.77;0.30;;;9.90;99.90;;;;;;5008254;28;20487;-72
2022/02/16 07:31:57;;;;;;;3.43;1.20;;;9.90;99.90;;;;;;5008978;28;20033;-71
2022/02/16 07:34:27;;;;;;;2.20;0.40;;;9.90;99.90;;;;;;5008900;28;20030;-71
2022/02/16 07:36:54;;;;;;;0.90;0.33;;;9.90;99.90;;;;;;4992839;28;20029;-71
2022/02/16 07:39:20;;;;;;;1.40;0.20;;;9.90;99.90;;;;;;4992503;28;20025;-71
2022/02/16 07:41:46;;;;;;;0.63;0.30;;;9.90;99.90;;;;;;5008940;28;20037;-71
2022/02/16 07:44:31;;;;;;;0.43;0.20;;;9.80;99.90;;;;;;5009566;28;20099;-71
2022/02/16 07:47:08;;;;;;;1.97;0.50;;;9.80;99.90;;;;;;5009051;28;20533;-72
2022/02/16 07:49:35;;;;;;;1.50;0.60;;;9.80;99.90;;;;;;5008568;28;20518;-71
2022/02/16 07:52:20;;;;;;;1.20;0.60;;;9.80;99.90;;;;;;5009998;28;20036;-71
2022/02/16 07:54:52;;;;;;;1.03;0.40;;;9.80;99.90;;;;;;5008367;28;20117;-72
2022/02/16 07:57:37;;;;;;;1.60;0.40;;;9.80;99.90;;;;;;5008694;28;20076;-71
2022/02/16 08:02:56;;;;;;;0.87;0.37;;;9.80;99.90;;;;;;4967510;28;20055;-70
2022/02/16 08:05:24;;;;;;;2.17;0.53;;;9.80;99.90;;;;;;4985265;28;20031;-70
2022/02/16 08:07:50;;;;;;;2.43;0.40;;;9.80;99.90;;;;;;4970211;28;20126;-70
2022/02/16 08:10:17;;;;;;;0.53;0.20;;;9.90;99.90;;;;;;5008657;28;20585;-68
2022/02/16 08:12:50;;;;;;;2.40;0.60;;;9.90;99.90;;;;;;4994722;28;20040;-69
2022/02/16 08:15:16;;;;;;;1.20;0.50;;;9.90;99.90;;;;;;4993582;28;20035;-70
2022/02/16 08:17:43;;;;;;;0.83;0.30;;;9.90;99.90;;;;;;4992486;28;20125;-70
2022/02/16 08:20:10;;;;;;;1.40;0.43;;;9.90;99.90;;;;;;4992161;28;20105;-70
2022/02/16 08:22:50;;;;;;;1.10;0.40;;;10.00;99.90;;;;;;4992586;28;20028;-70
2022/02/16 08:25:16;;;;;;;1.90;0.57;;;10.10;99.90;;;;;;5008757;28;20043;-70
2022/02/16 08:27:59;;;;;;;2.90;1.10;;;10.10;99.90;;;;;;5008703;28;20053;-70
2022/02/16 08:30:25;;;;;;;2.93;0.60;;;10.10;99.90;;;;;;4991544;28;20034;-70
2022/02/16 08:32:53;;;;;;;0.87;0.50;;;10.10;99.90;;;;;;4992315;28;20503;-70
2022/02/16 08:35:32;;;;;;;0.87;0.40;;;10.10;99.90;;;;;;4993557;28;20388;-70
2022/02/16 08:37:58;;;;;;;1.13;0.50;;;10.10;99.90;;;;;;4993661;28;20042;-70
2022/02/16 08:40:24;;;;;;;0.77;0.30;;;10.10;99.90;;;;;;4993803;28;20454;-70
2022/02/16 08:42:50;;;;;;;1.67;0.40;;;10.20;99.90;;;;;;4993952;28;20121;-70
2022/02/16 08:45:16;;;;;;;1.50;0.70;;;10.10;99.90;;;;;;4993480;28;20113;-70
2022/02/16 08:47:42;;;;;;;2.10;0.90;;;10.10;99.90;;;;;;4993880;28;20034;-69
2022/02/16 08:50:09;;;;;;;3.90;1.13;;;10.20;99.90;;;;;;4993930;28;20087;-69
2022/02/16 08:52:35;;;;;;;4.00;1.20;;;10.30;99.90;;;;;;4993434;28;20042;-69
2022/02/16 08:55:05;;;;;;;4.33;0.80;;;10.30;99.90;;;;;;4993246;28;20141;-69
2022/02/16 08:57:36;;;;;;;2.77;1.03;;;10.30;99.90;;;;;;4992517;28;20058;-70
2022/02/16 09:00:04;;;;;;;4.20;1.40;;;10.30;99.90;;;;;;4991032;28;20038;-70
2022/02/16 09:02:30;;;;;;;1.50;0.90;;;10.30;99.90;;;;;;5008228;28;20037;-70
2022/02/16 09:04:56;;;;;;;3.43;1.50;;;10.30;99.90;;;;;;4992648;28;20030;-70
2022/02/16 09:07:30;;;;;;;3.27;1.37;;;10.40;99.90;;;;;;4992720;28;20034;-70
2022/02/16 09:09:58;;;;;;;4.47;1.90;;;10.50;99.90;;;;;;4991209;28;20031;-70
2022/02/16 09:12:25;;;;;;;5.33;2.10;;;10.50;99.90;;;;;;4992702;28;20444;-70
2022/02/16 09:14:51;;;;;;;4.80;2.10;;;10.50;99.90;;;;;;4991982;28;20045;-70
2022/02/16 09:17:17;;;;;;;5.77;1.93;;;10.40;99.90;;;;;;4992552;28;20034;-70
2022/02/16 09:19:43;;;;;;;5.43;1.97;;;10.50;99.90;;;;;;4990690;28;20053;-70
2022/02/16 09:22:11;;;;;;;2.57;1.47;;;10.50;99.90;;;;;;4989845;28;20027;-69
2022/02/16 09:24:39;;;;;;;4.07;1.60;;;10.50;99.90;;;;;;4991955;28;20031;-69
2022/02/16 09:27:05;;;;;;;3.43;1.77;;;10.60;99.90;;;;;;4990611;28;20488;-69
2022/02/16 09:29:31;;;;;;;3.43;1.33;;;10.60;99.90;;;;;;4988349;28;20026;-69
2022/02/16 09:31:57;;;;;;;4.67;1.17;;;10.60;99.90;;;;;;4975015;28;20081;-69
2022/02/16 09:34:23;;;;;;;3.10;1.10;;;10.60;99.90;;;;;;4972025;28;20092;-69
2022/02/16 09:36:49;;;;;;;2.47;1.00;;;10.60;99.90;;;;;;4972242;28;20353;-69
2022/02/16 09:39:15;;;;;;;2.33;0.90;;;10.60;99.90;;;;;;4972522;28;20357;-69
2022/02/16 09:41:46;;;;;;;2.83;1.00;;;10.60;99.90;;;;;;4972354;28;20074;-69
2022/02/16 09:44:24;;;;;;;4.27;1.57;;;10.60;99.90;;;;;;4972217;28;20057;-69
2022/02/16 09:46:51;;;;;;;3.63;2.00;;;10.60;99.90;;;;;;4971718;28;20070;-69
2022/02/16 09:49:17;;;;;;;3.70;2.00;;;10.60;99.90;;;;;;4972121;28;20089;-69
2022/02/16 09:51:43;;;;;;;3.00;1.70;;;10.60;99.90;;;;;;4971965;28;20030;-69
2022/02/16 09:54:10;;;;;;;3.23;1.40;;;10.60;99.90;;;;;;4971995;28;20483;-68
2022/02/16 09:56:43;;;;;;;3.42;1.38;;;10.70;99.90;;;;;;4970711;28;20133;-69
2022/02/16 09:59:10;;;;;;;1.70;1.10;;;10.70;99.90;;;;;;4971818;28;20383;-69
2022/02/16 10:01:53;;;;;;;2.07;1.33;;;10.70;99.90;;;;;;4982217;28;20053;-66
2022/02/16 10:04:19;;;;;;;2.17;1.20;;;10.70;99.90;;;;;;5011823;28;20026;-69
2022/02/16 10:06:45;;;;;;;3.57;1.30;;;10.70;99.90;;;;;;4988386;28;20403;-69
2022/02/16 10:09:26;;;;;;;2.30;1.50;;;10.80;99.90;;;;;;4970532;28;20046;-69
2022/02/16 10:11:55;;;;;;;2.50;1.50;;;10.70;99.90;;;;;;4985480;28;20030;-69
2022/02/16 10:14:28;;;;;;;2.92;1.75;;;10.80;99.90;;;;;;4971993;28;20031;-68
2022/02/16 10:16:54;;;;;;;5.17;1.77;;;10.80;99.90;;;;;;4972082;28;20027;-67
2022/02/16 10:19:21;;;;;;;2.43;1.57;;;10.80;99.90;;;;;;4972102;28;20411;-69
2022/02/16 10:22:05;;;;;;;3.97;1.70;;;10.80;99.90;;;;;;4972081;28;20543;-68
2022/02/16 10:24:32;;;;;;;3.43;1.67;;;10.90;99.90;;;;;;4971689;28;20038;-68
2022/02/16 10:26:58;;;;;;;3.27;1.93;;;10.90;99.90;;;;;;4989001;28;20048;-68
2022/02/16 10:29:27;;;;;;;4.13;1.90;;;11.00;99.90;;;;;;4992033;28;20026;-68
2022/02/16 10:31:53;;;;;;;4.07;2.20;;;11.00;99.90;;;;;;4990596;28;20029;-67
2022/02/16 10:34:19;;;;;;;3.87;2.13;;;11.00;99.90;;;;;;4991508;28;20113;-67
2022/02/16 10:36:46;;;;;;;4.03;2.73;;;11.00;99.90;;;;;;4991430;28;20112;-66
2022/02/16 10:39:17;;;;;;;6.87;2.50;;;11.00;99.90;;;;;;4991469;28;20038;-69
2022/02/16 10:41:46;;;;;;;7.70;3.03;;;11.00;99.90;;;;;;4991692;28;20030;-70
2022/02/16 10:44:23;;;;;;;3.95;2.20;;;11.10;99.90;;;;;;4991361;28;20026;-68
2022/02/16 10:47:10;;;;;;;3.53;2.20;;;11.10;99.90;;;;;;4990962;28;20383;-68
2022/02/16 10:49:43;;;;;;;2.93;2.07;;;11.20;99.90;;;;;;4991161;28;20371;-69
2022/02/16 10:52:14;;;;;;;3.37;2.00;;;11.20;99.90;;;;;;4991723;28;20053;-68
2022/02/16 10:54:51;;;;;;;3.33;2.10;;;11.20;99.90;;;;;;4990717;28;20145;-68
2022/02/16 10:57:18;;;;;;;4.43;2.30;;;11.20;99.90;;;;;;4991201;28;20034;-69
2022/02/16 10:59:44;;;;;;;4.70;2.87;;;11.30;99.90;;;;;;4990480;28;20036;-69
2022/02/16 11:02:11;;;;;;;6.60;4.33;;;11.40;99.90;;;;;;4990859;28;20117;-70
2022/02/16 11:04:37;;;;;;;5.53;3.93;;;11.40;99.90;;;;;;4990670;28;20416;-69
2022/02/16 11:07:06;;;;;;;6.63;4.23;;;11.40;99.90;;;;;;4991213;28;20110;-69
2022/02/16 11:09:34;;;;;;;6.63;3.40;;;11.40;99.90;;;;;;4990718;28;20038;-70
2022/02/16 11:12:02;;;;;;;5.53;2.93;;;11.50;99.90;;;;;;5005857;28;20033;-69
2022/02/16 11:14:29;;;;;;;4.60;2.90;;;11.50;99.90;;;;;;4990286;28;20061;-71
2022/02/16 11:16:56;;;;;;;6.43;2.97;;;11.50;99.90;;;;;;5006048;28;20100;-72
2022/02/16 11:19:35;;;;;;;6.63;3.10;;;11.60;99.90;;;;;;4990738;28;20022;-69
2022/02/16 11:22:11;;;;;;;5.20;3.33;;;11.70;99.90;;;;;;4990045;28;20105;-69
2022/02/16 11:24:38;;;;;;;7.07;4.07;;;11.70;99.90;;;;;;4990751;28;20072;-69
2022/02/16 11:27:23;;;;;;;13.20;6.37;;;11.60;99.90;;;;;;4990999;28;20061;-70
2022/02/16 11:29:49;;;;;;;10.17;5.57;;;11.60;99.90;;;;;;5005045;28;20837;-67
2022/02/16 11:32:15;;;;;;;7.80;4.97;;;11.70;99.90;;;;;;4990904;28;20109;-67
2022/02/16 11:34:42;;;;;;;4.50;2.90;;;11.70;99.90;;;;;;4990578;28;20121;-69
2022/02/16 11:37:09;;;;;;;6.57;3.23;;;11.70;99.90;;;;;;4991977;28;20030;-68
2022/02/16 11:39:44;;;;;;;6.63;3.23;;;11.70;99.90;;;;;;4991463;28;20060;-69
2022/02/16 11:42:18;;;;;;;8.77;3.47;;;11.70;99.90;;;;;;4989917;28;20133;-66
2022/02/16 11:44:51;;;;;;;8.03;3.83;;;11.70;99.90;;;;;;4990576;28;20034;-70
2022/02/16 11:47:35;;;;;;;4.83;2.93;;;11.80;99.90;;;;;;4991714;28;20386;-69
2022/02/16 11:50:10;;;;;;;6.47;3.40;;;11.80;99.90;;;;;;4991672;28;20041;-69
2022/02/16 11:52:40;;;;;;;6.23;3.40;;;11.80;99.90;;;;;;5006673;28;20187;-68
2022/02/16 11:55:28;;;;;;;7.10;3.50;;;11.80;99.90;;;;;;5006505;28;20035;-69
2022/02/16 11:57:55;;;;;;;6.10;2.87;;;11.80;99.90;;;;;;4991346;28;20026;-69
2022/02/16 12:00:26;;;;;;;4.70;2.40;;;11.80;99.90;;;;;;4991005;28;20034;-69
2022/02/16 12:02:56;;;;;;;3.80;2.30;;;11.80;99.90;;;;;;4990609;28;20630;-69
2022/02/16 12:05:47;;;;;;;5.93;2.30;;;11.90;99.90;;;;;;4991326;28;20387;-69
2022/02/16 12:08:14;;;;;;;4.47;2.03;;;11.90;99.90;;;;;;4991599;28;20033;-69
2022/02/16 12:10:49;;;;;;;3.97;2.30;;;11.90;99.90;;;;;;4990146;28;20216;-69
2022/02/16 12:13:16;;;;;;;8.43;1.97;;;11.90;99.90;;;;;;4990208;28;20034;-69
2022/02/16 12:15:42;;;;;;;3.20;1.93;;;11.90;99.90;;;;;;4989967;28;20058;-69
2022/02/16 12:18:13;;;;;;;4.03;2.13;;;11.90;99.90;;;;;;4991525;28;20060;-69
2022/02/16 12:20:39;;;;;;;3.57;1.80;;;11.80;99.90;;;;;;4991532;28;20554;-69
2022/02/16 12:23:06;;;;;;;5.37;3.10;;;11.90;99.90;;;;;;4991320;28;20038;-69
2022/02/16 12:25:34;;;;;;;4.63;2.57;;;11.90;99.90;;;;;;4991309;28;20031;-71
2022/02/16 12:28:02;;;;;;;4.73;2.10;;;11.90;99.90;;;;;;5006372;28;20027;-71
2022/02/16 12:30:36;;;;;;;3.72;2.00;;;11.90;99.90;;;;;;4990939;28;20030;-71
2022/02/16 12:33:03;;;;;;;3.77;1.37;;;11.80;99.90;;;;;;5006486;28;20470;-70
2022/02/16 12:35:29;;;;;;;4.00;1.43;;;11.80;99.90;;;;;;4991262;28;20043;-71
2022/02/16 12:37:55;;;;;;;3.33;1.40;;;11.90;99.90;;;;;;4991286;28;20031;-71
2022/02/16 12:40:23;;;;;;;3.87;1.90;;;12.00;99.90;;;;;;4991243;28;20101;-71
2022/02/16 12:42:49;;;;;;;4.07;1.70;;;12.00;99.90;;;;;;4991298;28;20106;-70
2022/02/16 12:45:21;;;;;;;4.50;1.50;;;12.00;99.90;;;;;;4990714;28;20037;-71
2022/02/16 12:47:50;;;;;;;2.57;1.13;;;12.00;99.90;;;;;;4991299;28;20033;-70
2022/02/16 12:50:19;;;;;;;2.10;1.08;;;12.00;99.90;;;;;;5006342;28;20041;-71
2022/02/16 12:52:45;;;;;;;2.72;1.10;;;12.00;99.90;;;;;;4991246;28;20117;-71
2022/02/16 12:55:11;;;;;;;4.40;1.20;;;12.10;99.90;;;;;;4992980;28;20034;-71
2022/02/16 12:57:37;;;;;;;2.80;1.40;;;12.10;99.90;;;;;;5009742;28;20136;-71
2022/02/16 13:03:05;;;;;;;3.07;1.20;;;12.10;99.90;;;;;;4994790;28;20049;-70
2022/02/16 13:05:49;;;;;;;3.83;0.93;;;12.10;99.90;;;;;;4993316;28;20039;-71